EGGD/BRS METAR and TAF weather

Enter ICAO airport designator
Station Type Date Time Source
EGGD METAR 2019/11/13 02:20 UTC NOAA

EGGD 130220Z AUTO 27010KT 9999 NCD 04/03 Q1002


Station Type Date Time Source
EGGD Decoded METAR 2019/11/13 02:20 UTC NOAA

Bristol / Lulsgate , United Kingdom (EGGD) 51-23N 002-43W
Nov 12, 2019 - 09:20 PM EST / 2019.11.13 0220 UTC
Wind: from the W (270 degrees) at 12 MPH (10 KT):0
Visibility: greater than 7 mile(s):0
Temperature: 39 F (4 C)
Dew Point: 37 F (3 C)
Relative Humidity: 93%
Pressure (altimeter): 29.59 in. Hg (1002 hPa)
ob: EGGD 130220Z AUTO 27010KT 9999 NCD 04/03 Q1002
cycle: 2

Station Type Date Time Source
EGGD TAF 2019/11/12 18:06 UTC NOAA

TAF EGGD 121703Z 1218/1318 28009KT 9999 SCT020 PROB40
TEMPO 1218/1302 7000 SHRA BKN014 PROB30
TEMPO 1308/1316 7000 SHRA
BECMG 1309/1312 20010KT
BECMG 1315/1318 13010KT
TEMPO 1316/1318 8000 RA BKN010 PROB30
TEMPO 1316/1318 4000 +SHRA BKN006

Example: see airport list